Time;durP1;ratioP1;P1;durP2;ratioP2;P2;SDS_P1;SDS_P2;PMS_P1;PMS_P2;Temp;Humidity;BMP_temperature;BMP_pressure;BME280_temperature;BME280_humidity;BME280_pressure;Samples;Min_cycle;Max_cycle;Signal;HPM_P1;HPM_P2
2021/04/28 00:00:11;;;;;;;2.53;2.15;;;23.60;31.60;;;;;;5091874;28;20440;-57
2021/04/28 00:02:36;;;;;;;2.88;2.20;;;23.60;31.60;;;;;;5090528;28;20793;-57
2021/04/28 00:05:10;;;;;;;2.65;2.10;;;23.60;31.60;;;;;;5092168;28;20413;-57
2021/04/28 00:07:36;;;;;;;2.30;1.92;;;23.60;31.70;;;;;;5090883;28;20433;-57
2021/04/28 00:10:05;;;;;;;2.85;2.10;;;23.60;31.60;;;;;;5091802;28;20389;-57
2021/04/28 00:12:31;;;;;;;2.70;2.15;;;23.60;31.70;;;;;;5091496;28;20723;-57
2021/04/28 00:14:56;;;;;;;2.93;2.20;;;23.60;31.70;;;;;;5090732;28;20393;-57
2021/04/28 00:17:22;;;;;;;2.60;2.08;;;23.60;31.60;;;;;;5090650;28;20439;-57
2021/04/28 00:19:48;;;;;;;2.55;2.08;;;23.60;31.60;;;;;;5091840;28;20421;-57
2021/04/28 00:22:14;;;;;;;2.47;1.93;;;23.60;31.60;;;;;;5090126;28;20750;-58
2021/04/28 00:24:40;;;;;;;2.45;2.00;;;23.50;31.60;;;;;;5091516;28;20389;-57
2021/04/28 00:27:06;;;;;;;2.72;2.03;;;23.50;31.60;;;;;;5091814;28;20386;-58
2021/04/28 00:29:32;;;;;;;2.40;2.00;;;23.50;31.50;;;;;;5091746;28;20409;-57
2021/04/28 00:31:58;;;;;;;2.90;2.00;;;23.50;32.20;;;;;;5091745;28;20743;-57
2021/04/28 00:34:23;;;;;;;2.60;2.10;;;23.50;31.40;;;;;;5091176;28;20389;-57
2021/04/28 00:36:49;;;;;;;2.38;1.90;;;23.50;31.50;;;;;;5091725;28;20866;-57
2021/04/28 00:39:15;;;;;;;2.53;1.93;;;23.50;31.50;;;;;;5090265;28;20810;-57
2021/04/28 00:41:43;;;;;;;2.50;2.13;;;23.50;31.40;;;;;;5091707;28;20394;-57
2021/04/28 00:44:09;;;;;;;2.50;2.10;;;23.50;31.50;;;;;;5090170;28;20386;-57
2021/04/28 00:46:34;;;;;;;2.50;2.10;;;23.50;31.40;;;;;;5091153;28;20409;-57
2021/04/28 00:49:00;;;;;;;2.40;1.85;;;23.40;31.40;;;;;;5089936;28;20413;-57
2021/04/28 00:51:25;;;;;;;2.50;1.90;;;23.40;31.40;;;;;;5091482;28;20429;-57
2021/04/28 00:53:52;;;;;;;2.40;1.90;;;23.40;31.50;;;;;;5091527;28;20386;-57
2021/04/28 00:56:18;;;;;;;3.20;2.03;;;23.40;31.50;;;;;;5090938;28;20394;-57
2021/04/28 00:58:43;;;;;;;3.00;2.10;;;23.40;31.60;;;;;;5091481;28;20970;-57
2021/04/28 01:01:09;;;;;;;2.60;2.00;;;23.40;31.60;;;;;;5089931;28;20951;-58
2021/04/28 01:03:36;;;;;;;2.95;2.00;;;23.30;31.50;;;;;;5091437;28;20377;-57
2021/04/28 01:06:05;;;;;;;2.35;1.90;;;23.40;31.50;;;;;;5091280;28;20410;-57
2021/04/28 01:08:31;;;;;;;2.35;1.98;;;23.30;31.60;;;;;;5090866;28;20854;-57
2021/04/28 01:10:57;;;;;;;2.40;1.80;;;23.30;31.60;;;;;;5091344;28;20874;-57
2021/04/28 01:13:24;;;;;;;2.33;1.95;;;23.30;31.50;;;;;;5091239;28;20880;-57
2021/04/28 01:15:51;;;;;;;2.55;1.98;;;23.30;31.60;;;;;;5091325;28;20398;-57
2021/04/28 01:18:18;;;;;;;3.00;1.80;;;23.30;31.50;;;;;;5091009;28;20382;-57
2021/04/28 01:20:44;;;;;;;2.13;1.90;;;23.30;31.50;;;;;;5089970;28;20484;-57
2021/04/28 01:23:11;;;;;;;2.10;1.67;;;23.30;31.50;;;;;;5094608;28;20754;-57
2021/04/28 01:25:38;;;;;;;2.63;2.10;;;23.30;31.40;;;;;;5095179;28;20409;-57
2021/04/28 01:28:15;;;;;;;2.70;2.00;;;23.30;31.50;;;;;;5095188;28;20456;-57
2021/04/28 01:30:48;;;;;;;2.00;1.80;;;23.30;31.40;;;;;;5094880;28;20892;-57
2021/04/28 01:33:20;;;;;;;1.95;1.70;;;23.30;31.50;;;;;;5093803;28;20378;-58
2021/04/28 01:35:51;;;;;;;2.05;1.70;;;23.30;31.50;;;;;;5094995;28;20461;-58
2021/04/28 01:38:17;;;;;;;2.23;1.70;;;23.30;31.50;;;;;;5094733;28;20374;-58
2021/04/28 01:40:44;;;;;;;2.65;1.90;;;23.30;31.50;;;;;;5094724;28;20858;-58
2021/04/28 01:43:10;;;;;;;2.38;2.00;;;23.30;31.40;;;;;;5093509;28;20463;-57
2021/04/28 01:45:36;;;;;;;2.75;2.10;;;23.30;31.30;;;;;;5094779;28;20421;-57
2021/04/28 01:48:04;;;;;;;2.28;1.83;;;23.40;31.30;;;;;;5094688;28;20378;-59
2021/04/28 01:50:31;;;;;;;2.58;2.00;;;23.30;31.20;;;;;;5094367;28;20386;-57
2021/04/28 01:52:57;;;;;;;2.50;1.85;;;23.30;31.20;;;;;;5094623;28;20474;-57
2021/04/28 01:55:23;;;;;;;2.53;1.80;;;23.40;31.20;;;;;;5094573;28;20477;-57
2021/04/28 01:57:50;;;;;;;2.30;1.90;;;23.40;31.20;;;;;;5094676;28;20469;-57
2021/04/28 02:00:19;;;;;;;2.50;1.98;;;23.30;31.20;;;;;;5094254;28;20455;-57
2021/04/28 02:02:45;;;;;;;2.20;1.85;;;23.30;31.20;;;;;;5094102;28;20417;-58
2021/04/28 02:05:12;;;;;;;2.55;1.80;;;23.30;31.20;;;;;;5094545;28;20393;-58
2021/04/28 02:07:41;;;;;;;2.30;1.83;;;23.30;31.20;;;;;;5094384;28;20614;-57
2021/04/28 02:10:07;;;;;;;2.40;1.97;;;23.40;31.10;;;;;;5094306;28;20386;-57
2021/04/28 02:12:33;;;;;;;2.45;2.00;;;23.30;31.00;;;;;;5093843;28;20385;-57
2021/04/28 02:14:59;;;;;;;2.00;1.70;;;23.30;31.00;;;;;;5092965;28;20746;-57
2021/04/28 02:17:25;;;;;;;2.33;1.88;;;23.30;31.00;;;;;;5094107;28;20735;-57
2021/04/28 02:19:52;;;;;;;2.78;1.98;;;23.30;31.00;;;;;;5094176;28;20439;-57
2021/04/28 02:22:19;;;;;;;2.47;2.00;;;23.30;31.00;;;;;;5093822;28;20465;-57
2021/04/28 02:24:45;;;;;;;2.88;2.00;;;23.30;31.00;;;;;;5093802;28;20481;-57
2021/04/28 02:27:11;;;;;;;2.67;2.13;;;23.30;31.00;;;;;;5093867;28;20390;-57
2021/04/28 02:29:37;;;;;;;2.23;1.93;;;23.30;31.00;;;;;;5093998;28;20382;-57
2021/04/28 02:32:04;;;;;;;2.75;2.20;;;23.30;31.00;;;;;;5093783;28;20382;-57
2021/04/28 02:34:30;;;;;;;2.40;2.03;;;23.30;31.00;;;;;;5093323;28;20734;-57
2021/04/28 02:36:58;;;;;;;2.30;1.73;;;23.30;31.60;;;;;;5093848;28;20382;-57
2021/04/28 02:39:33;;;;;;;2.58;1.83;;;23.30;31.00;;;;;;5093757;28;20455;-57
2021/04/28 02:41:59;;;;;;;2.40;2.10;;;23.30;31.70;;;;;;5093717;28;20392;-57
2021/04/28 02:44:26;;;;;;;2.40;2.00;;;23.30;31.00;;;;;;5093247;28;20469;-57
2021/04/28 02:46:55;;;;;;;2.50;2.00;;;23.30;31.00;;;;;;5093556;28;20410;-57
2021/04/28 02:49:22;;;;;;;2.28;2.00;;;23.30;31.00;;;;;;5093456;28;20739;-57
2021/04/28 02:51:48;;;;;;;2.50;2.10;;;23.30;31.00;;;;;;5093566;28;20382;-57
2021/04/28 02:54:16;;;;;;;2.17;1.90;;;23.30;31.10;;;;;;5092198;28;20397;-57
2021/04/28 02:56:42;;;;;;;2.40;2.00;;;23.30;31.00;;;;;;5093055;28;20394;-57
2021/04/28 02:59:08;;;;;;;2.20;2.00;;;23.20;31.00;;;;;;5093295;28;20378;-57
2021/04/28 03:01:35;;;;;;;2.47;1.90;;;23.20;31.00;;;;;;5093216;28;20551;-57
2021/04/28 03:04:01;;;;;;;2.30;1.83;;;23.20;30.90;;;;;;5093336;28;20390;-57
2021/04/28 03:06:27;;;;;;;2.47;2.13;;;23.20;31.00;;;;;;5092657;28;20467;-57
2021/04/28 03:08:53;;;;;;;2.25;1.90;;;23.20;31.00;;;;;;5093188;28;20382;-57
2021/04/28 03:11:22;;;;;;;2.10;1.60;;;23.20;30.90;;;;;;5093325;28;20425;-57
2021/04/28 03:13:48;;;;;;;2.45;2.00;;;23.20;30.90;;;;;;5091929;28;20788;-57
2021/04/28 03:16:14;;;;;;;2.33;1.90;;;23.20;31.00;;;;;;5093104;28;20382;-58
2021/04/28 03:18:40;;;;;;;2.13;1.90;;;23.20;30.90;;;;;;5092615;28;20385;-58
2021/04/28 03:21:08;;;;;;;2.47;1.80;;;23.20;31.00;;;;;;5092984;28;20888;-57
2021/04/28 03:23:34;;;;;;;2.05;1.83;;;23.20;30.90;;;;;;5092934;28;20870;-58
2021/04/28 03:26:00;;;;;;;1.95;1.70;;;23.20;30.90;;;;;;5091563;28;20418;-57
2021/04/28 03:28:27;;;;;;;2.25;1.80;;;23.20;31.00;;;;;;5092409;28;20470;-57
2021/04/28 03:30:53;;;;;;;2.10;1.90;;;23.20;30.90;;;;;;5092750;28;20389;-57
2021/04/28 03:33:18;;;;;;;1.75;1.50;;;23.20;30.90;;;;;;5092716;28;20390;-57
2021/04/28 03:35:44;;;;;;;2.50;2.00;;;23.10;30.90;;;;;;5092724;28;20396;-57
2021/04/28 03:38:10;;;;;;;2.28;2.03;;;23.20;30.90;;;;;;5092649;28;20385;-58
2021/04/28 03:40:36;;;;;;;2.35;1.85;;;23.20;30.90;;;;;;5092177;28;20395;-57
2021/04/28 03:43:02;;;;;;;2.15;1.80;;;23.20;30.90;;;;;;5092544;28;20393;-58
2021/04/28 03:45:27;;;;;;;2.35;1.73;;;23.10;30.80;;;;;;5091987;28;20418;-57
2021/04/28 03:47:53;;;;;;;2.47;1.90;;;23.10;30.90;;;;;;5092353;28;20369;-57
2021/04/28 03:50:19;;;;;;;2.53;1.90;;;23.10;30.90;;;;;;5092419;28;20494;-57
2021/04/28 03:52:44;;;;;;;1.92;1.70;;;23.10;30.90;;;;;;5090722;28;20882;-57
2021/04/28 03:55:11;;;;;;;1.90;1.70;;;23.10;30.90;;;;;;5092359;28;20426;-58
2021/04/28 03:57:37;;;;;;;2.20;1.75;;;23.10;30.90;;;;;;5092348;28;20378;-57
2021/04/28 04:00:06;;;;;;;2.00;1.80;;;23.10;30.90;;;;;;5092200;28;20436;-58
2021/04/28 04:02:32;;;;;;;2.10;1.60;;;23.10;30.90;;;;;;5091521;28;20449;-57
2021/04/28 04:04:59;;;;;;;2.35;2.00;;;23.10;30.90;;;;;;5092174;28;20437;-57
2021/04/28 04:07:25;;;;;;;2.25;1.90;;;23.10;30.90;;;;;;5092090;28;20870;-57
2021/04/28 04:09:50;;;;;;;2.17;1.70;;;23.10;30.80;;;;;;5092086;28;20442;-57
2021/04/28 04:12:16;;;;;;;2.10;1.83;;;23.10;30.80;;;;;;5092096;28;20386;-57
2021/04/28 04:14:42;;;;;;;2.10;1.60;;;23.10;30.80;;;;;;5091520;28;20390;-57
2021/04/28 04:17:08;;;;;;;2.70;1.80;;;23.10;30.80;;;;;;5091943;28;20851;-57
2021/04/28 04:19:34;;;;;;;1.95;1.63;;;23.10;30.80;;;;;;5091899;28;20377;-60
2021/04/28 04:21:59;;;;;;;2.25;1.75;;;23.10;30.80;;;;;;5091961;28;20386;-57
2021/04/28 04:24:25;;;;;;;2.20;1.77;;;23.10;30.80;;;;;;5091621;28;20401;-57
2021/04/28 04:26:51;;;;;;;2.05;1.70;;;23.10;30.80;;;;;;5091613;28;20414;-57
2021/04/28 04:29:17;;;;;;;2.20;1.80;;;23.10;30.80;;;;;;5091784;28;20742;-57
2021/04/28 04:31:42;;;;;;;2.42;1.60;;;23.10;30.80;;;;;;5093292;28;20450;-57
2021/04/28 04:34:08;;;;;;;2.40;1.90;;;23.00;30.80;;;;;;5092202;28;20469;-57
2021/04/28 04:36:34;;;;;;;2.10;1.75;;;23.00;30.80;;;;;;5091558;28;20870;-57
2021/04/28 04:39:02;;;;;;;2.15;1.85;;;23.00;30.90;;;;;;5092024;28;20439;-57
2021/04/28 04:41:28;;;;;;;2.15;1.75;;;22.90;30.90;;;;;;5091633;28;20377;-57
2021/04/28 04:43:53;;;;;;;2.00;1.77;;;22.80;31.00;;;;;;5091251;28;20443;-57
2021/04/28 04:46:19;;;;;;;2.30;1.60;;;22.80;31.10;;;;;;5091457;28;20418;-57
2021/04/28 04:48:45;;;;;;;2.00;1.60;;;22.80;31.10;;;;;;5091533;28;20378;-57
2021/04/28 04:51:10;;;;;;;2.00;1.70;;;22.80;31.20;;;;;;5091509;28;20390;-57
2021/04/28 04:53:37;;;;;;;2.47;1.80;;;22.80;31.20;;;;;;5101972;28;20384;-57
2021/04/28 04:56:03;;;;;;;3.05;1.80;;;22.80;31.20;;;;;;5099628;28;20429;-58
2021/04/28 04:58:28;;;;;;;2.70;2.03;;;22.90;31.30;;;;;;5098066;28;20410;-58
2021/04/28 05:00:54;;;;;;;4.53;1.70;;;22.90;31.10;;;;;;5101703;28;20937;-58
2021/04/28 05:03:20;;;;;;;5.50;2.00;;;22.80;31.10;;;;;;5115097;28;20410;-57
2021/04/28 05:05:45;;;;;;;4.28;1.80;;;22.80;31.30;;;;;;5113997;28;20412;-57
2021/04/28 05:08:11;;;;;;;2.87;1.80;;;22.80;31.50;;;;;;5114269;28;20384;-57
2021/04/28 05:10:37;;;;;;;3.40;1.80;;;22.80;31.60;;;;;;5114998;28;20389;-57
2021/04/28 05:13:02;;;;;;;3.30;1.90;;;22.80;31.70;;;;;;5115320;28;20379;-58
2021/04/28 05:15:28;;;;;;;3.78;1.92;;;22.70;31.70;;;;;;5115326;28;20425;-57
2021/04/28 05:17:58;;;;;;;3.80;2.03;;;22.70;31.90;;;;;;5115427;28;20391;-57
2021/04/28 05:20:25;;;;;;;3.90;1.92;;;22.80;32.50;;;;;;5115628;28;20407;-57
2021/04/28 05:22:51;;;;;;;5.90;2.20;;;22.70;32.20;;;;;;5115165;28;20430;-57
2021/04/28 05:25:16;;;;;;;5.00;2.10;;;22.80;32.90;;;;;;5114137;28;20525;-57
2021/04/28 05:27:42;;;;;;;4.13;2.03;;;22.70;32.80;;;;;;5115648;28;20384;-57
2021/04/28 05:30:09;;;;;;;4.70;2.00;;;22.80;32.50;;;;;;5115405;28;20879;-57
2021/04/28 05:32:35;;;;;;;3.00;1.90;;;22.80;32.70;;;;;;5115104;28;20439;-57
2021/04/28 05:35:01;;;;;;;4.88;2.05;;;22.80;32.50;;;;;;5115391;28;20392;-57
2021/04/28 05:37:27;;;;;;;3.17;2.13;;;22.80;32.50;;;;;;5115427;28;20396;-57
2021/04/28 05:39:52;;;;;;;3.80;2.33;;;22.80;32.50;;;;;;5115383;28;20376;-59
2021/04/28 05:42:18;;;;;;;3.00;1.90;;;22.80;32.80;;;;;;5115141;28;20404;-58
2021/04/28 05:44:46;;;;;;;4.25;2.00;;;22.80;33.00;;;;;;5114700;28;20415;-58
2021/04/28 05:47:13;;;;;;;3.40;2.00;;;22.80;34.30;;;;;;5114668;28;20384;-57
2021/04/28 05:49:39;;;;;;;5.20;2.00;;;22.80;33.30;;;;;;5113823;28;20475;-58
2021/04/28 05:52:05;;;;;;;3.33;1.80;;;22.80;33.10;;;;;;5114920;28;20467;-57
2021/04/28 05:54:31;;;;;;;3.80;1.80;;;22.80;32.90;;;;;;5114858;28;20825;-62
2021/04/28 05:56:57;;;;;;;3.67;1.97;;;22.80;33.00;;;;;;5114417;28;20523;-58
2021/04/28 05:59:23;;;;;;;4.60;1.95;;;22.80;33.20;;;;;;5114486;28;21421;-58
2021/04/28 06:01:49;;;;;;;4.88;2.10;;;22.80;33.00;;;;;;5114274;28;20392;-57
2021/04/28 06:04:16;;;;;;;4.90;2.20;;;22.80;32.80;;;;;;5114621;28;20384;-61
2021/04/28 06:06:42;;;;;;;3.83;1.80;;;22.90;32.80;;;;;;5114177;28;20427;-57
2021/04/28 06:09:07;;;;;;;4.28;2.20;;;22.80;33.10;;;;;;5114270;28;20408;-57
2021/04/28 06:11:33;;;;;;;4.43;2.13;;;22.80;33.00;;;;;;5114634;28;20412;-57
2021/04/28 06:13:59;;;;;;;3.10;1.93;;;22.80;32.80;;;;;;5114588;28;20495;-57
2021/04/28 06:16:25;;;;;;;3.65;2.10;;;22.90;32.80;;;;;;5114578;28;20493;-57
2021/04/28 06:18:51;;;;;;;4.57;2.20;;;22.90;32.70;;;;;;5114081;28;20373;-57
2021/04/28 06:21:16;;;;;;;3.92;2.20;;;22.90;33.40;;;;;;5114438;28;20420;-57
2021/04/28 06:23:42;;;;;;;4.53;2.25;;;22.90;33.00;;;;;;5099905;28;20929;-57
2021/04/28 06:26:08;;;;;;;3.80;2.20;;;23.00;33.00;;;;;;5093932;28;20496;-57
2021/04/28 06:28:34;;;;;;;3.53;2.28;;;23.00;32.60;;;;;;5093709;28;20729;-57
2021/04/28 06:30:59;;;;;;;3.50;2.10;;;23.00;32.80;;;;;;5093669;28;20432;-57
2021/04/28 06:33:25;;;;;;;3.10;2.10;;;23.10;32.60;;;;;;5093890;28;20374;-57
2021/04/28 06:35:51;;;;;;;2.72;1.80;;;23.10;32.50;;;;;;5093579;28;20382;-57
2021/04/28 06:38:17;;;;;;;2.60;2.00;;;23.10;32.30;;;;;;5093751;28;20454;-57
2021/04/28 06:40:42;;;;;;;2.78;2.20;;;23.10;32.10;;;;;;5093253;28;20394;-57
2021/04/28 06:43:09;;;;;;;2.72;2.20;;;23.10;31.80;;;;;;5092111;28;20444;-58
2021/04/28 06:45:35;;;;;;;3.15;2.05;;;23.20;31.60;;;;;;5093562;28;20743;-57
2021/04/28 06:48:04;;;;;;;2.67;2.00;;;23.20;32.10;;;;;;5093537;28;20398;-57
2021/04/28 06:50:31;;;;;;;3.03;2.25;;;23.20;32.20;;;;;;5093474;28;20378;-57
2021/04/28 06:52:57;;;;;;;2.67;1.95;;;23.30;31.90;;;;;;5092052;28;20398;-58
2021/04/28 06:55:23;;;;;;;2.95;2.00;;;23.30;31.60;;;;;;5093497;28;20378;-57
2021/04/28 06:57:55;;;;;;;3.15;2.03;;;23.30;31.50;;;;;;5091999;28;20404;-58
2021/04/28 07:00:26;;;;;;;3.97;2.28;;;23.30;31.50;;;;;;5092086;28;20455;-57
2021/04/28 07:02:54;;;;;;;4.33;2.00;;;23.30;31.50;;;;;;5092524;28;20463;-63
2021/04/28 07:05:21;;;;;;;3.10;1.92;;;23.30;31.40;;;;;;5092926;28;20477;-58
2021/04/28 07:07:47;;;;;;;4.30;2.00;;;23.30;31.50;;;;;;5093302;28;20886;-57
2021/04/28 07:10:13;;;;;;;3.75;2.13;;;23.30;31.60;;;;;;5093033;28;20378;-58
2021/04/28 07:13:28;;;;;;;4.25;1.88;;;23.30;31.60;;;;;;5621433;22;20429;-61
2021/04/28 07:15:54;;;;;;;5.10;2.08;;;23.30;31.60;;;;;;5008847;28;20420;-66
2021/04/28 07:18:20;;;;;;;3.77;1.93;;;23.40;31.70;;;;;;5011222;28;20479;-66
2021/04/28 07:20:45;;;;;;;5.22;2.28;;;23.40;31.60;;;;;;5012397;28;20416;-65
2021/04/28 07:23:11;;;;;;;3.63;2.20;;;23.40;31.60;;;;;;5013058;28;20416;-66
2021/04/28 07:25:37;;;;;;;5.03;2.25;;;23.40;31.60;;;;;;5011648;28;20425;-66
2021/04/28 07:28:02;;;;;;;4.90;2.30;;;23.40;31.90;;;;;;5012878;28;20874;-66
2021/04/28 07:30:28;;;;;;;3.35;2.05;;;23.40;32.00;;;;;;5011059;28;20450;-66
2021/04/28 07:32:54;;;;;;;5.40;2.23;;;23.40;32.20;;;;;;5013012;28;20872;-66
2021/04/28 07:35:22;;;;;;;5.00;2.30;;;23.50;32.00;;;;;;5012919;28;20756;-65
2021/04/28 07:37:49;;;;;;;4.25;2.30;;;23.50;32.40;;;;;;5012779;28;20385;-66
2021/04/28 07:40:15;;;;;;;4.57;2.30;;;23.50;32.30;;;;;;5012419;28;20387;-66
2021/04/28 07:42:41;;;;;;;5.30;2.17;;;23.40;32.40;;;;;;5011803;28;20389;-67
2021/04/28 07:45:08;;;;;;;4.80;2.25;;;23.50;32.90;;;;;;5012544;28;20417;-66
2021/04/28 07:47:34;;;;;;;3.53;2.22;;;23.50;33.00;;;;;;5012719;28;20483;-66
2021/04/28 07:49:59;;;;;;;3.58;2.30;;;23.50;32.70;;;;;;5012616;28;20468;-66
2021/04/28 07:52:25;;;;;;;4.37;2.10;;;23.50;32.40;;;;;;5012160;28;20404;-60
2021/04/28 07:54:51;;;;;;;3.35;2.10;;;23.50;31.80;;;;;;5012408;28;20385;-64
2021/04/28 07:57:17;;;;;;;3.35;2.10;;;23.60;31.50;;;;;;5011950;28;20392;-66
2021/04/28 07:59:44;;;;;;;4.43;2.13;;;23.50;31.70;;;;;;5012517;28;20722;-66
2021/04/28 08:02:10;;;;;;;3.70;2.20;;;23.50;31.70;;;;;;5012298;28;20411;-65
2021/04/28 08:04:38;;;;;;;2.60;1.80;;;23.60;32.40;;;;;;5011204;28;20435;-67
2021/04/28 08:07:07;;;;;;;3.28;2.00;;;23.60;32.70;;;;;;5010979;28;21267;-61
2021/04/28 08:09:35;;;;;;;3.27;1.97;;;23.60;33.10;;;;;;5011953;28;20470;-63
2021/04/28 08:12:05;;;;;;;4.28;2.10;;;23.70;34.10;;;;;;5012293;28;20389;-66
2021/04/28 08:14:30;;;;;;;6.28;1.80;;;23.70;34.40;;;;;;5019734;28;20437;-66
2021/04/28 08:16:57;;;;;;;4.20;2.00;;;23.80;33.70;;;;;;5031944;28;20423;-61
2021/04/28 08:19:24;;;;;;;2.95;1.90;;;23.80;34.60;;;;;;5030612;28;20394;-67
2021/04/28 08:21:50;;;;;;;3.00;1.83;;;23.80;32.90;;;;;;5031955;28;20383;-63
2021/04/28 08:24:15;;;;;;;3.15;1.50;;;23.80;33.60;;;;;;5031486;28;20475;-65
2021/04/28 08:26:41;;;;;;;3.37;2.00;;;23.80;34.10;;;;;;5031750;28;20501;-65
2021/04/28 08:29:07;;;;;;;3.38;1.73;;;23.80;34.10;;;;;;5031653;28;20409;-63
2021/04/28 08:31:32;;;;;;;4.33;2.30;;;23.80;34.20;;;;;;5031613;28;20901;-60
2021/04/28 08:33:58;;;;;;;7.80;2.20;;;23.80;35.00;;;;;;5031515;28;20816;-63
2021/04/28 08:36:23;;;;;;;5.07;1.80;;;23.80;35.00;;;;;;5031310;28;20395;-66
2021/04/28 08:38:49;;;;;;;5.23;1.90;;;23.80;34.50;;;;;;5031618;28;20391;-66
2021/04/28 08:41:15;;;;;;;4.68;1.90;;;23.80;34.70;;;;;;5031588;28;20917;-66
2021/04/28 08:43:41;;;;;;;5.10;1.90;;;23.80;34.90;;;;;;5030498;28;20392;-62
2021/04/28 08:46:07;;;;;;;3.72;1.90;;;23.80;34.50;;;;;;5031148;28;20426;-62
2021/04/28 08:48:34;;;;;;;4.95;1.70;;;23.80;33.20;;;;;;5031080;28;20870;-62
2021/04/28 08:51:01;;;;;;;4.22;1.80;;;23.80;34.10;;;;;;5031496;28;20453;-62
2021/04/28 08:53:29;;;;;;;3.33;1.85;;;23.90;33.20;;;;;;5030369;28;20423;-61
2021/04/28 08:55:56;;;;;;;4.60;1.70;;;23.90;33.20;;;;;;5031417;28;20974;-66
2021/04/28 08:58:23;;;;;;;3.83;1.90;;;23.80;32.50;;;;;;5031061;28;20883;-62
2021/04/28 09:00:49;;;;;;;2.72;1.63;;;23.80;32.20;;;;;;5030157;28;20398;-59
2021/04/28 09:03:17;;;;;;;5.90;1.70;;;23.90;34.40;;;;;;5031633;28;20411;-59
2021/04/28 09:05:45;;;;;;;4.93;1.70;;;24.00;34.30;;;;;;5031367;28;20752;-62
2021/04/28 09:08:11;;;;;;;5.90;1.67;;;24.20;33.90;;;;;;5030151;28;20395;-65
2021/04/28 09:10:39;;;;;;;3.88;1.70;;;24.20;33.30;;;;;;5030981;28;20477;-65
2021/04/28 09:13:23;;;;;;;5.15;1.65;;;24.30;33.30;;;;;;5031367;28;20417;-64
2021/04/28 09:15:50;;;;;;;6.15;1.80;;;24.40;33.10;;;;;;5030775;28;20403;-58
2021/04/28 09:18:19;;;;;;;3.65;1.50;;;24.50;32.80;;;;;;5030925;28;20402;-64
2021/04/28 09:20:52;;;;;;;3.45;1.80;;;24.50;32.70;;;;;;5029722;28;20957;-60
2021/04/28 09:23:38;;;;;;;3.97;1.60;;;24.50;32.70;;;;;;5031295;28;20403;-60
2021/04/28 09:26:14;;;;;;;3.20;1.50;;;24.50;32.70;;;;;;5030666;28;21149;-66
2021/04/28 09:28:40;;;;;;;4.55;1.95;;;24.50;32.60;;;;;;5030892;28;20387;-65
2021/04/28 09:31:05;;;;;;;3.33;2.10;;;24.60;32.00;;;;;;5031206;28;20913;-62
2021/04/28 09:33:40;;;;;;;4.50;1.98;;;24.60;31.40;;;;;;5031226;28;20751;-64
2021/04/28 09:36:07;;;;;;;4.65;1.80;;;24.60;31.10;;;;;;5031056;28;20383;-62
2021/04/28 09:38:53;;;;;;;5.75;2.20;;;24.60;31.10;;;;;;5030667;28;20441;-67
2021/04/28 09:41:36;;;;;;;3.50;1.80;;;24.60;31.00;;;;;;5031208;28;20938;-67
2021/04/28 09:44:18;;;;;;;2.88;1.70;;;24.60;30.80;;;;;;5032621;28;20399;-66
2021/04/28 09:47:09;;;;;;;2.72;1.70;;;24.70;30.70;;;;;;5032976;28;20450;-65
2021/04/28 09:49:59;;;;;;;3.10;1.63;;;24.70;30.50;;;;;;5033305;28;20874;-66
2021/04/28 09:52:30;;;;;;;4.60;1.80;;;24.70;30.70;;;;;;5031412;28;20888;-66
2021/04/28 09:55:02;;;;;;;6.03;1.90;;;24.70;30.70;;;;;;5032956;28;20481;-67
2021/04/28 09:57:47;;;;;;;6.15;2.10;;;24.70;31.00;;;;;;5033246;28;20371;-58
2021/04/28 10:00:22;;;;;;;4.13;1.70;;;24.70;31.20;;;;;;5034369;28;20395;-58
2021/04/28 10:02:58;;;;;;;5.00;1.75;;;24.70;31.00;;;;;;5034505;28;20387;-59
2021/04/28 10:05:36;;;;;;;2.90;1.50;;;24.80;31.10;;;;;;5034222;28;20411;-64
2021/04/28 10:08:07;;;;;;;3.70;1.70;;;24.80;31.10;;;;;;5034357;28;20388;-59
2021/04/28 10:10:34;;;;;;;4.60;1.70;;;24.80;31.20;;;;;;5033883;28;20379;-61
2021/04/28 10:13:00;;;;;;;3.80;1.80;;;24.80;31.10;;;;;;5034339;28;20441;-59
2021/04/28 10:15:25;;;;;;;2.90;1.65;;;24.90;31.10;;;;;;5034050;28;20415;-60
2021/04/28 10:17:53;;;;;;;4.77;1.80;;;24.90;31.10;;;;;;5032919;28;20415;-58
2021/04/28 10:20:20;;;;;;;3.65;1.90;;;24.90;31.10;;;;;;5032914;28;20467;-61
2021/04/28 10:22:46;;;;;;;4.68;1.77;;;25.00;31.00;;;;;;5034126;28;20394;-60
2021/04/28 10:25:14;;;;;;;4.25;1.70;;;25.00;31.00;;;;;;5033977;28;20387;-59
2021/04/28 10:27:41;;;;;;;3.22;1.40;;;25.10;31.20;;;;;;5034028;28;20970;-60
2021/04/28 10:30:08;;;;;;;5.63;1.50;;;25.10;31.20;;;;;;5033904;28;20763;-58
2021/04/28 10:32:36;;;;;;;3.42;1.50;;;25.10;31.70;;;;;;5033751;28;20391;-60
2021/04/28 10:35:08;;;;;;;4.88;1.40;;;25.20;31.50;;;;;;5033911;28;20383;-63
2021/04/28 10:37:36;;;;;;;6.47;1.70;;;25.20;31.20;;;;;;5033953;28;20406;-62
2021/04/28 10:40:10;;;;;;;3.97;1.50;;;25.20;31.80;;;;;;5033741;28;20403;-58
2021/04/28 10:42:37;;;;;;;4.17;1.70;;;25.30;31.70;;;;;;5033455;28;20493;-59
2021/04/28 10:45:11;;;;;;;2.83;1.60;;;25.30;31.30;;;;;;5034016;28;20470;-59
2021/04/28 10:47:40;;;;;;;4.18;1.60;;;25.40;31.20;;;;;;5033570;28;20890;-62
2021/04/28 10:50:20;;;;;;;2.60;1.10;;;25.40;31.20;;;;;;5033584;28;20863;-59
2021/04/28 10:53:00;;;;;;;4.23;1.43;;;25.40;31.10;;;;;;5033158;28;20407;-59
2021/04/28 10:55:50;;;;;;;4.50;1.50;;;25.40;30.90;;;;;;5032349;28;20387;-58
2021/04/28 10:58:32;;;;;;;3.55;1.70;;;25.50;31.30;;;;;;5033560;28;20387;-61
2021/04/28 11:03:34;;;;;;;2.65;1.30;;;25.60;31.10;;;;;;5033487;28;20415;-58
2021/04/28 11:11:31;;;;;;;3.20;1.23;;;25.70;30.90;;;;;;5033043;28;20761;-58
2021/04/28 11:14:14;;;;;;;3.47;1.17;;;25.70;30.90;;;;;;5032971;28;20857;-58
2021/04/28 11:16:48;;;;;;;2.72;1.30;;;25.80;31.00;;;;;;5031329;28;20406;-58
2021/04/28 11:19:15;;;;;;;2.17;1.23;;;25.70;30.80;;;;;;5033063;28;20406;-58
2021/04/28 11:21:41;;;;;;;2.27;1.30;;;25.80;31.00;;;;;;5033069;28;20866;-57
2021/04/28 11:24:16;;;;;;;3.60;1.35;;;25.80;31.00;;;;;;5032943;28;20879;-59
2021/04/28 11:26:52;;;;;;;1.98;1.30;;;25.90;31.00;;;;;;5032412;28;20427;-58
2021/04/28 11:29:21;;;;;;;2.05;1.17;;;25.90;30.80;;;;;;5032984;28;20470;-58
2021/04/28 11:31:54;;;;;;;2.20;1.27;;;25.90;30.80;;;;;;5032792;28;20867;-59
2021/04/28 11:34:34;;;;;;;2.10;1.10;;;25.90;30.70;;;;;;5032906;28;20395;-58
2021/04/28 11:37:05;;;;;;;2.70;1.48;;;26.00;30.80;;;;;;5032741;28;20387;-59
2021/04/28 11:39:42;;;;;;;4.20;1.40;;;26.10;30.80;;;;;;5032768;28;20450;-59
2021/04/28 11:42:11;;;;;;;3.38;1.20;;;26.10;30.70;;;;;;5032660;28;20379;-59
2021/04/28 11:44:47;;;;;;;2.65;1.25;;;26.10;30.60;;;;;;5032199;28;20375;-59
2021/04/28 11:47:16;;;;;;;2.47;1.30;;;26.10;30.70;;;;;;5032529;28;20415;-59
2021/04/28 11:49:42;;;;;;;2.78;1.40;;;26.20;30.60;;;;;;5032513;28;20391;-59
2021/04/28 11:52:08;;;;;;;2.60;1.38;;;26.20;30.70;;;;;;5031730;28;20399;-59
2021/04/28 11:54:34;;;;;;;7.00;1.30;;;26.20;30.80;;;;;;5031788;28;20464;-60
2021/04/28 11:57:00;;;;;;;9.20;1.70;;;26.30;31.60;;;;;;5032134;28;20437;-59
2021/04/28 11:59:32;;;;;;;8.73;1.83;;;26.30;31.50;;;;;;5043262;28;20401;-60
2021/04/28 12:02:00;;;;;;;4.63;1.58;;;26.40;30.80;;;;;;5031913;28;20395;-63
2021/04/28 12:04:30;;;;;;;4.43;1.60;;;26.40;30.50;;;;;;5031846;28;20383;-59
2021/04/28 12:06:56;;;;;;;4.77;1.70;;;26.40;30.10;;;;;;5031714;28;20415;-61
2021/04/28 12:09:30;;;;;;;3.83;1.63;;;26.40;30.00;;;;;;5032125;28;20859;-59
2021/04/28 12:12:13;;;;;;;3.22;1.40;;;26.40;30.10;;;;;;5031786;28;20392;-59
2021/04/28 12:14:40;;;;;;;2.22;1.38;;;26.40;29.90;;;;;;5031372;28;20869;-59
2021/04/28 12:17:06;;;;;;;2.35;1.40;;;26.40;29.70;;;;;;5031685;28;20461;-59
2021/04/28 12:19:32;;;;;;;5.97;1.70;;;26.40;29.50;;;;;;5031586;28;20482;-60
2021/04/28 12:22:07;;;;;;;5.47;2.00;;;26.50;29.60;;;;;;5031592;28;20382;-59
2021/04/28 12:24:35;;;;;;;3.15;1.38;;;26.50;29.80;;;;;;5031470;28;20943;-58
2021/04/28 12:27:26;;;;;;;5.60;1.65;;;26.50;29.60;;;;;;5031684;28;20903;-65
2021/04/28 12:29:51;;;;;;;3.25;1.42;;;26.50;29.70;;;;;;5030079;28;21079;-59
2021/04/28 12:32:19;;;;;;;4.40;1.52;;;26.60;29.80;;;;;;5031578;28;20395;-58
2021/04/28 12:34:47;;;;;;;4.97;1.70;;;26.60;29.90;;;;;;5031141;28;20391;-59
2021/04/28 12:37:22;;;;;;;3.50;1.40;;;26.60;30.00;;;;;;5031499;28;20441;-58
2021/04/28 12:39:59;;;;;;;3.20;1.40;;;26.70;30.00;;;;;;5031940;28;20445;-58
2021/04/28 12:42:30;;;;;;;3.40;1.30;;;26.70;29.80;;;;;;5031793;28;20387;-59
2021/04/28 12:44:57;;;;;;;2.97;1.23;;;26.80;29.80;;;;;;5031532;28;20394;-58
2021/04/28 12:47:29;;;;;;;2.33;1.30;;;26.70;30.40;;;;;;5031285;28;20406;-58
2021/04/28 12:50:07;;;;;;;3.00;1.33;;;26.70;30.10;;;;;;5030897;28;20866;-58
2021/04/28 12:52:38;;;;;;;3.58;1.30;;;26.80;30.00;;;;;;5031265;28;20403;-59
2021/04/28 12:55:31;;;;;;;3.55;1.48;;;26.70;30.00;;;;;;5030775;28;20474;-58
2021/04/28 12:58:11;;;;;;;3.50;1.40;;;26.70;29.90;;;;;;5031108;28;20754;-59
2021/04/28 13:00:56;;;;;;;2.50;1.50;;;26.70;30.00;;;;;;5030499;28;20388;-58